METAR、SPECI、TAF(飛行場実況・予報)


■ METAR、SPECI(飛行場実況)

METAR RJAF 130200Z 33004KT 280V020 9999 FEW030 BKN/// 24/16 Q1007 RMK 1CU030 A2975
METAR RJAF 130300Z 35008KT 310V030 9999 FEW030 BKN/// 27/17 Q1006 RMK 2CU030 A2971
METAR RJAF 130400Z 34012KT 9999 FEW030 SCT110 28/16 Q1005 RMK 2CU030 4AC110 A2970
METAR RJAF 130500Z 35013KT 9999 FEW050 BKN100 BKN/// 26/15 Q1005 RMK 1CU050 5AC100 A2970
METAR RJAF 130600Z 32009KT 9999 FEW050 BKN110 BKN/// 26/15 Q1005 RMK 1CU050 5AC110 A2969
METAR RJAF 130700Z 34009KT 290V010 9999 FEW050 BKN/// 27/15 Q1005 RMK 1CU050 A2969
METAR RJAF 130700Z 34009KT 290V010 9999 FEW050 BKN/// 27/15 Q1005 RMK 1CU050 A2969
METAR RJAF 130800Z 36008KT 9999 FEW050 SCT100 BKN/// 27/14 Q1005 RMK 1CU050 3AC100 A2969
METAR RJAF 130900Z 34007KT 9999 FEW050 BKN080 26/15 Q1006 RMK 1CU050 5AC080 A2971
SPECI RJAF 132310Z VRB03KT 9999 FEW050 21/15 Q1011 RMK 1CU050 A2987
METAR RJAF 132330Z 34003KT 280V020 9999 FEW060 22/16 Q1011 RMK 1CU060 A2986
METAR RJAF 140000Z VRB04KT 9999 FEW060 23/16 Q1010 RMK 1CU060 A2985
METAR RJAF 140100Z 36005KT 290V050 9999 FEW060 25/17 Q1011 RMK 1CU060 A2985
METAR RJAF 140200Z 01005KT 300V050 9999 FEW050 27/16 Q1010 RMK 1CU050 A2985
METAR RJAF 140300Z 34004KT 270V080 9999 FEW050 28/13 Q1010 RMK 1CU050 A2983
METAR RJAF 140400Z VRB05KT 9999 FEW050 28/14 Q1009 RMK 1CU050 A2981
METAR RJAF 140500Z 35007KT 300V050 9999 FEW060 30/14 Q1009 RMK 2CU060 A2979
METAR RJAF 140600Z 01007KT 320V060 9999 FEW060 30/13 Q1008 RMK 2CU060 A2978
METAR RJAF 140700Z 35009KT 320V020 9999 FEW060 30/12 Q1008 RMK 2CU060 A2978
METAR RJAF 140800Z 36010KT 9999 FEW050 SCT080 29/13 Q1008 RMK 1CU050 3AC080 A2978
METAR RJAF 140900Z 32005KT 290V350 9999 FEW050 BKN080 28/14 Q1009 RMK 1CU050 5AC080 A2980
SPECI RJAF 142310Z VRB02KT 9999 FEW050 BKN/// 24/17 Q1011 RMK 1CU050 A2986
METAR RJAF 142330Z VRB01KT 9999 FEW050 BKN/// 24/16 Q1011 RMK 1CU050 A2985
METAR RJAF 150000Z VRB03KT 9999 FEW050 BKN/// 25/17 Q1010 RMK 1CU050 A2984
METAR RJAF 150100Z VRB02KT 9999 FEW060 BKN/// 26/15 Q1009 RMK 1CU060 A2982
METAR RJAF 150200Z VRB05G16KT 9999 FEW060 BKN/// 29/13 Q1009 RMK 1CU060 A2980
METAR RJAF 150300Z 15011KT 110V190 9999 FEW060 BKN/// 30/09 Q1008 RMK 1CU060 A2977
METAR RJAF 150400Z 13007KT 040V210 9999 FEW060 BKN/// 30/11 Q1007 RMK 2CU060 A2975
METAR RJAF 150500Z 14009KT 090V210 9999 FEW060 BKN/// 31/13 Q1006 RMK 2CU060 A2972
METAR RJAF 150600Z 13011KT 090V170 9999 FEW060 BKN/// 29/13 Q1006 RMK 2CU060 A2972
METAR RJAF 150700Z 13012KT 100V160 9999 FEW060 SCT080 BKN/// 28/12 Q1005 RMK 1CU060 3AC080 A2970
METAR RJAF 150800Z 13011KT 090V160 9999 FEW040 SCT100 BKN/// 27/12 Q1006 RMK 1CU040 3AC100 A2971
METAR RJAF 150900Z 14010KT 110V170 9999 FEW050 SCT100 BKN/// 26/11 Q1006 RMK 1CU050 4AC100 A2973

■ TAF(飛行場予報)


				

お知らせ

新着情報

  • 太陽光発電量推算
  • 気象予報士試験過去問・講座
  • Yahoo Weather shop
  • メルカリ Weather shop
  • BASE Weather shop

ご案内